Terminal Aerodrome Forecast
Issued by NWS

Home | Current Version | Previous Version | Text Only | Print | Product List | Glossary On
Versions: 1 2 3 4 5 6 7 8 9 10 11 12 13 14 15 16 17 18 19 20 21 22 23 24 25 26
621
FTUS42 KCAE 251517 AAA
TAFDNL
TAF AMD
KDNL 251517Z 2515/2612 24010G18KT P6SM SCT019 BKN040
      TEMPO 2515/2516 BKN019
     FM251600 23012G20KT P6SM VCSH SCT015 BKN020 BKN050
     FM251900 26015G28KT P6SM SCT050
     FM260100 29010KT P6SM SKC
     FM260500 30005KT P6SM SKC=

USA.gov is the U.S. government's official web portal to all federal, state and local government web resources and services.